Terminal Aerodrome Forecast
Issued by NWS Northern Indiana

Home | Current Version | Previous Version | Text Only | Print | Product List | Glossary On
Versions: 1 2 3 4 5 6 7 8 9 10 11 12 13 14 15 16 17 18 19
826
FTUS43 KIWX 200533
TAFFWA
TAF
KFWA 200533Z 2006/2106 00000KT 1/4SM FG VV001
     FM201400 VRB03KT 3SM BR SCT015
     FM201500 21005KT P6SM SCT035=

USA.gov is the U.S. government's official web portal to all federal, state and local government web resources and services.